Blodgett, Oregon
Current Conditions -  °F | °C
As of 4:55 AM on Thursday 23 Oct 2014 (Local Time) from KCVO Reporting Station
Overcast Overcast  
Wind Chill: 57°   Ceiling: 3900
Heat Index: 57°   Visibility: 9mi
Dew Point: 54°   Wind: 5mph
Humidity: 88%   Direction: 200°SSW
Pressure: 29.79"   Gusts: NA
Location:  44.6°N, 123.52°W
Report Text: KCVO 231155Z AUTO 20004KT 9SM SCT031 BKN039 OVC048 14/12 A2979 RMK AO1 P0002 60009 70084 10140 20130 57003
Loading
Personal Weather Stations






























Interactive Weather Map
Tropical Storm Tracking
New forecast layout! Learn more

10-Day Weather Forecast

Advertisements
Track Severe Weather on mobile